Time;durP1;ratioP1;P1;durP2;ratioP2;P2;SDS_P1;SDS_P2;PMS_P1;PMS_P2;Temp;Humidity;BMP_temperature;BMP_pressure;BME280_temperature;BME280_humidity;BME280_pressure;Samples;Min_cycle;Max_cycle;Signal;HPM_P1;HPM_P2
2023/03/07 00:01:45;;;;;;;4.15;1.88;;;19.40;52.80;;;;;;5034883;28;20038;-61
2023/03/07 00:04:10;;;;;;;2.40;1.63;;;19.40;52.70;;;;;;5035764;28;20041;-62
2023/03/07 00:06:36;;;;;;;3.42;1.88;;;19.40;52.70;;;;;;5034602;28;20052;-61
2023/03/07 00:09:02;;;;;;;2.25;1.40;;;19.40;52.70;;;;;;5035106;28;20041;-62
2023/03/07 00:11:28;;;;;;;2.28;1.35;;;19.30;52.70;;;;;;5035367;28;20056;-61
2023/03/07 00:13:54;;;;;;;3.13;1.80;;;19.30;52.70;;;;;;5035809;28;20041;-61
2023/03/07 00:16:21;;;;;;;3.28;1.42;;;19.30;52.70;;;;;;5035108;28;20037;-61
2023/03/07 00:18:49;;;;;;;3.53;1.80;;;19.30;52.70;;;;;;5035617;28;20052;-61
2023/03/07 00:21:17;;;;;;;2.80;1.40;;;19.30;52.70;;;;;;5033041;28;20037;-61
2023/03/07 00:23:43;;;;;;;2.05;1.40;;;19.30;52.70;;;;;;5034670;28;20686;-61
2023/03/07 00:26:19;;;;;;;2.20;1.58;;;19.30;52.70;;;;;;5035156;28;20398;-61
2023/03/07 00:28:46;;;;;;;2.70;1.52;;;19.30;52.70;;;;;;5034384;28;20075;-61
2023/03/07 00:31:11;;;;;;;3.53;1.35;;;19.20;52.60;;;;;;5033804;28;20536;-61
2023/03/07 00:33:37;;;;;;;2.25;1.48;;;19.30;52.60;;;;;;5034505;28;20129;-61
2023/03/07 00:36:07;;;;;;;1.88;1.15;;;19.20;52.60;;;;;;5034004;28;20045;-61
2023/03/07 00:38:33;;;;;;;2.13;1.23;;;19.30;52.60;;;;;;5033138;28;20145;-62
2023/03/07 00:41:06;;;;;;;1.65;1.10;;;19.20;52.60;;;;;;5034953;28;20128;-61
2023/03/07 00:43:31;;;;;;;2.50;1.33;;;19.20;52.60;;;;;;5032408;28;20061;-61
2023/03/07 00:45:57;;;;;;;2.63;1.25;;;19.20;52.60;;;;;;5034926;28;20132;-61
2023/03/07 00:48:23;;;;;;;1.50;1.10;;;19.20;52.60;;;;;;5033100;28;20038;-61
2023/03/07 00:50:49;;;;;;;1.70;1.17;;;19.20;52.50;;;;;;5031197;28;20076;-61
2023/03/07 00:53:15;;;;;;;2.03;1.20;;;19.20;52.60;;;;;;5032573;28;20064;-61
2023/03/07 00:55:41;;;;;;;1.23;0.98;;;19.20;52.60;;;;;;5034197;28;20045;-62
2023/03/07 00:58:06;;;;;;;2.17;1.20;;;19.20;52.60;;;;;;5033568;28;20456;-62
2023/03/07 01:00:32;;;;;;;2.28;1.20;;;19.20;52.50;;;;;;5032773;28;20045;-62
2023/03/07 01:03:09;;;;;;;2.35;1.15;;;19.10;52.50;;;;;;5032984;28;20046;-61
2023/03/07 01:05:38;;;;;;;3.15;1.10;;;19.10;53.10;;;;;;5033608;28;20056;-61
2023/03/07 01:08:04;;;;;;;1.35;0.98;;;19.10;52.50;;;;;;5033709;28;20045;-61
2023/03/07 01:10:32;;;;;;;1.73;1.00;;;19.10;52.40;;;;;;5033220;28;20060;-61
2023/03/07 01:12:58;;;;;;;1.77;1.00;;;19.10;52.40;;;;;;5033782;28;20046;-61
2023/03/07 01:15:23;;;;;;;1.90;0.98;;;19.10;52.50;;;;;;5033695;28;20127;-61
2023/03/07 01:17:49;;;;;;;3.45;0.90;;;19.10;52.50;;;;;;5033664;28;20492;-61
2023/03/07 01:20:15;;;;;;;2.25;1.10;;;19.10;52.50;;;;;;5034140;28;20041;-61
2023/03/07 01:22:40;;;;;;;2.08;1.00;;;19.10;52.50;;;;;;5033301;28;20079;-61
2023/03/07 01:25:06;;;;;;;1.65;0.90;;;19.00;52.50;;;;;;5033651;28;20060;-62
2023/03/07 01:27:31;;;;;;;1.65;0.98;;;19.10;52.50;;;;;;5033994;28;20042;-61
2023/03/07 01:29:57;;;;;;;1.98;0.90;;;19.00;52.50;;;;;;5033822;28;20045;-61
2023/03/07 01:32:23;;;;;;;1.02;0.70;;;19.00;52.50;;;;;;5033317;28;20041;-61
2023/03/07 01:34:48;;;;;;;1.38;0.70;;;19.00;52.50;;;;;;5034043;28;20103;-61
2023/03/07 01:37:14;;;;;;;1.40;0.80;;;19.00;52.50;;;;;;5033509;28;20118;-61
2023/03/07 01:39:39;;;;;;;1.35;0.77;;;19.00;52.50;;;;;;5032704;28;20079;-61
2023/03/07 01:42:05;;;;;;;0.88;0.70;;;19.00;52.50;;;;;;5033776;28;20050;-61
2023/03/07 01:44:31;;;;;;;1.52;0.85;;;19.00;52.50;;;;;;5033561;28;20056;-61
2023/03/07 01:46:58;;;;;;;1.33;0.70;;;19.00;52.50;;;;;;5033037;28;20507;-61
2023/03/07 01:49:25;;;;;;;1.55;0.95;;;19.00;52.50;;;;;;5033210;28;20045;-61
2023/03/07 01:51:56;;;;;;;1.10;0.70;;;19.00;52.50;;;;;;5015638;28;20045;-60
2023/03/07 01:54:21;;;;;;;1.60;0.98;;;19.00;52.50;;;;;;5031847;28;20049;-61
2023/03/07 01:56:47;;;;;;;1.70;0.88;;;19.00;52.50;;;;;;5033349;28;20500;-61
2023/03/07 01:59:15;;;;;;;1.05;0.70;;;19.00;52.50;;;;;;5015915;28;20795;-61
2023/03/07 02:01:41;;;;;;;;;;;19.00;52.50;;;;;;5031891;28;20056;-61
2023/03/07 02:04:14;;;;;;;0.93;0.60;;;19.00;52.50;;;;;;5032352;28;19921;-61
2023/03/07 02:06:40;;;;;;;1.25;0.75;;;18.90;52.50;;;;;;4994393;28;20062;-61
2023/03/07 02:09:12;;;;;;;1.98;0.75;;;19.00;52.50;;;;;;5013342;28;20037;-61
2023/03/07 02:11:40;;;;;;;0.70;0.50;;;19.00;52.60;;;;;;5010034;28;20053;-61
2023/03/07 02:14:05;;;;;;;1.60;0.80;;;19.00;52.50;;;;;;5031385;28;20047;-61
2023/03/07 02:16:31;;;;;;;1.42;0.80;;;19.00;52.50;;;;;;5032977;28;20132;-61
2023/03/07 02:18:56;;;;;;;0.73;0.50;;;19.00;52.50;;;;;;5031801;28;20041;-61
2023/03/07 02:21:40;;;;;;;1.33;0.80;;;19.00;52.60;;;;;;5030953;28;20033;-61
2023/03/07 02:24:28;;;;;;;0.98;0.60;;;19.00;52.50;;;;;;5015929;28;20049;-61
2023/03/07 02:26:54;;;;;;;;;;;19.00;53.20;;;;;;5012849;28;20064;-61
2023/03/07 02:29:20;;;;;;;1.20;0.63;;;19.00;52.50;;;;;;4994812;28;19917;-61
2023/03/07 02:31:46;;;;;;;1.17;0.63;;;19.00;52.50;;;;;;5025728;28;20049;-61
2023/03/07 02:34:17;;;;;;;1.33;0.60;;;19.00;52.50;;;;;;5032947;28;20045;-61
2023/03/07 02:36:43;;;;;;;1.00;0.50;;;19.00;52.50;;;;;;5029620;28;20080;-61
2023/03/07 02:39:08;;;;;;;1.38;0.70;;;19.00;52.50;;;;;;5015239;28;20087;-61
2023/03/07 02:41:34;;;;;;;1.00;0.50;;;18.90;52.40;;;;;;5032388;28;20049;-61
2023/03/07 02:43:59;;;;;;;0.88;0.50;;;19.00;52.50;;;;;;5031197;28;20076;-61
2023/03/07 02:46:25;;;;;;;0.90;0.60;;;19.00;52.50;;;;;;5032529;28;20048;-61
2023/03/07 02:48:50;;;;;;;1.23;0.68;;;19.00;52.50;;;;;;5031920;28;20045;-61
2023/03/07 02:51:16;;;;;;;1.10;0.60;;;19.00;52.60;;;;;;5032204;28;20045;-61
2023/03/07 02:53:41;;;;;;;1.00;0.55;;;19.00;52.50;;;;;;5031949;28;20095;-61
2023/03/07 02:56:10;;;;;;;1.05;0.70;;;19.00;52.50;;;;;;5030897;28;20121;-61
2023/03/07 02:58:36;;;;;;;1.63;0.50;;;19.00;52.50;;;;;;5031963;28;20481;-61
2023/03/07 03:01:01;;;;;;;0.82;0.60;;;19.00;52.50;;;;;;5032639;28;20037;-61
2023/03/07 03:03:30;;;;;;;1.42;0.45;;;19.00;52.50;;;;;;5031208;28;20045;-61
2023/03/07 03:05:56;;;;;;;0.70;0.43;;;19.00;52.50;;;;;;5030688;28;20041;-61
2023/03/07 03:08:21;;;;;;;1.52;0.70;;;19.00;52.50;;;;;;5032178;28;20045;-61
2023/03/07 03:10:52;;;;;;;1.27;0.50;;;19.00;52.50;;;;;;5031565;28;20041;-61
2023/03/07 03:13:18;;;;;;;0.63;0.50;;;19.00;52.50;;;;;;5032547;28;20037;-61
2023/03/07 03:15:44;;;;;;;1.05;0.60;;;19.00;52.50;;;;;;5032123;28;20046;-62
2023/03/07 03:18:10;;;;;;;1.33;0.50;;;19.00;52.50;;;;;;5030089;28;20052;-61
2023/03/07 03:20:39;;;;;;;0.98;0.45;;;19.00;52.50;;;;;;5030219;28;20041;-62
2023/03/07 03:23:04;;;;;;;1.20;0.70;;;19.00;52.40;;;;;;5032750;28;20506;-61
2023/03/07 03:25:30;;;;;;;1.27;0.57;;;19.00;52.50;;;;;;5031479;28;20041;-61
2023/03/07 03:27:55;;;;;;;1.70;0.60;;;19.00;52.50;;;;;;5032171;28;20038;-62
2023/03/07 03:30:21;;;;;;;1.60;0.40;;;19.00;52.50;;;;;;5032043;28;20045;-61
2023/03/07 03:32:47;;;;;;;1.23;0.60;;;19.00;52.40;;;;;;5030968;28;20044;-61
2023/03/07 03:35:12;;;;;;;0.95;0.50;;;19.00;52.40;;;;;;5033617;28;20034;-63
2023/03/07 03:37:38;;;;;;;0.47;0.40;;;19.00;52.40;;;;;;5035998;28;20061;-60
2023/03/07 03:40:13;;;;;;;0.43;0.30;;;19.00;52.40;;;;;;5035349;28;20053;-61
2023/03/07 03:42:40;;;;;;;0.50;0.40;;;19.00;52.40;;;;;;5035767;28;20045;-61
2023/03/07 03:45:07;;;;;;;1.48;0.40;;;19.00;52.50;;;;;;5035428;28;20061;-62
2023/03/07 03:47:33;;;;;;;0.93;0.50;;;19.00;52.40;;;;;;5035523;28;20045;-61
2023/03/07 03:49:59;;;;;;;1.02;0.57;;;19.00;52.40;;;;;;5036155;28;20096;-61
2023/03/07 03:52:24;;;;;;;0.73;0.40;;;19.00;52.40;;;;;;5034511;28;20106;-61
2023/03/07 03:54:50;;;;;;;1.95;0.50;;;19.00;52.30;;;;;;5034538;28;20033;-61
2023/03/07 03:57:17;;;;;;;0.32;0.30;;;19.10;52.40;;;;;;5034500;28;20098;-61
2023/03/07 03:59:43;;;;;;;1.42;0.65;;;19.00;52.30;;;;;;5034578;28;20555;-61
2023/03/07 04:02:09;;;;;;;0.98;0.50;;;19.10;52.40;;;;;;5035318;28;20500;-61
2023/03/07 04:04:35;;;;;;;1.45;0.50;;;19.10;52.30;;;;;;5035574;28;20057;-61
2023/03/07 04:07:00;;;;;;;0.88;0.32;;;19.10;52.30;;;;;;5035092;28;20441;-61
2023/03/07 04:09:26;;;;;;;1.05;0.40;;;19.10;52.30;;;;;;5035458;28;20163;-61
2023/03/07 04:11:51;;;;;;;0.70;0.38;;;19.10;52.30;;;;;;5035981;28;20041;-61
2023/03/07 04:14:17;;;;;;;0.47;0.30;;;19.20;53.00;;;;;;5033449;28;20420;-60
2023/03/07 04:16:46;;;;;;;1.20;0.57;;;19.20;52.30;;;;;;5035802;28;20053;-61
2023/03/07 04:19:14;;;;;;;1.67;0.47;;;19.10;52.20;;;;;;5035377;28;20045;-62
2023/03/07 04:21:40;;;;;;;1.13;0.40;;;19.20;52.30;;;;;;5033144;28;20477;-61
2023/03/07 04:24:06;;;;;;;1.75;0.38;;;19.20;52.20;;;;;;5035297;28;20091;-62
2023/03/07 04:26:32;;;;;;;1.50;0.40;;;19.20;52.20;;;;;;5035300;28;20041;-61
2023/03/07 04:28:58;;;;;;;0.77;0.30;;;19.20;52.20;;;;;;5034751;28;20044;-62
2023/03/07 04:31:24;;;;;;;1.15;0.43;;;19.20;52.20;;;;;;5034910;28;20393;-61
2023/03/07 04:33:50;;;;;;;1.52;0.43;;;19.30;52.20;;;;;;5035582;28;20069;-62
2023/03/07 04:36:16;;;;;;;0.73;0.30;;;19.20;52.20;;;;;;5036925;28;20088;-62
2023/03/07 04:38:48;;;;;;;0.88;0.30;;;19.20;52.20;;;;;;5054991;28;20084;-62
2023/03/07 04:41:22;;;;;;;1.27;0.40;;;19.30;52.20;;;;;;5055231;28;20041;-62
2023/03/07 04:43:48;;;;;;;1.05;0.35;;;19.30;52.20;;;;;;5054702;28;20847;-62
2023/03/07 04:46:14;;;;;;;0.77;0.30;;;19.30;52.20;;;;;;5052653;28;20417;-62
2023/03/07 04:48:40;;;;;;;0.80;0.40;;;19.30;52.20;;;;;;5054253;28;20076;-62
2023/03/07 04:51:08;;;;;;;1.20;0.30;;;19.30;52.20;;;;;;5054991;28;20076;-62
2023/03/07 04:53:36;;;;;;;;;;;19.30;52.20;;;;;;5042453;28;20060;-62
2023/03/07 04:56:04;;;;;;;1.92;0.40;;;19.30;52.20;;;;;;5033149;28;19921;-62
2023/03/07 04:58:29;;;;;;;0.60;0.40;;;19.40;52.20;;;;;;5034342;28;20443;-62
2023/03/07 05:00:58;;;;;;;1.15;0.38;;;19.40;52.20;;;;;;5029473;28;20473;-62
2023/03/07 05:03:25;;;;;;;1.17;0.30;;;19.40;52.20;;;;;;5033899;28;20037;-61
2023/03/07 05:05:50;;;;;;;0.95;0.40;;;19.40;52.10;;;;;;5034191;28;20406;-62
2023/03/07 05:08:16;;;;;;;1.23;0.40;;;19.40;52.10;;;;;;5034370;28;20128;-62
2023/03/07 05:10:41;;;;;;;0.45;0.20;;;19.40;52.20;;;;;;5033726;28;20049;-62
2023/03/07 05:13:07;;;;;;;1.63;0.40;;;19.40;52.10;;;;;;5034756;28;20053;-62
2023/03/07 05:15:33;;;;;;;1.23;0.40;;;19.50;52.20;;;;;;5034642;28;20045;-62
2023/03/07 05:17:59;;;;;;;1.45;0.40;;;19.50;52.20;;;;;;5033809;28;20069;-62
2023/03/07 05:20:24;;;;;;;2.08;0.40;;;19.50;52.10;;;;;;5032602;28;20084;-62
2023/03/07 05:22:50;;;;;;;1.15;0.28;;;19.50;52.10;;;;;;5034510;28;20042;-64
2023/03/07 05:25:15;;;;;;;0.47;0.22;;;19.50;52.10;;;;;;5032300;28;20451;-62
2023/03/07 05:27:41;;;;;;;1.27;0.30;;;19.50;52.10;;;;;;5034347;28;20056;-62
2023/03/07 05:30:07;;;;;;;0.85;0.30;;;19.50;52.10;;;;;;5034513;28;20045;-62
2023/03/07 05:32:33;;;;;;;0.32;0.20;;;19.60;52.10;;;;;;5032659;28;20401;-62
2023/03/07 05:34:59;;;;;;;0.63;0.30;;;19.50;52.00;;;;;;5033111;28;20041;-62
2023/03/07 05:37:24;;;;;;;1.95;0.50;;;19.60;52.10;;;;;;5033904;28;20049;-62
2023/03/07 05:39:50;;;;;;;0.77;0.32;;;19.60;52.00;;;;;;5033587;28;20038;-62
2023/03/07 05:42:15;;;;;;;0.75;0.30;;;19.60;52.10;;;;;;5034346;28;20057;-62
2023/03/07 05:44:41;;;;;;;1.70;0.40;;;19.60;52.00;;;;;;5032909;28;20060;-62
2023/03/07 05:47:07;;;;;;;1.20;0.40;;;19.60;52.00;;;;;;5032661;28;20038;-62
2023/03/07 05:49:32;;;;;;;0.45;0.20;;;19.60;52.00;;;;;;5033315;28;20037;-62
2023/03/07 05:51:58;;;;;;;1.08;0.30;;;19.60;52.00;;;;;;5032024;28;20150;-62
2023/03/07 05:54:24;;;;;;;0.95;0.25;;;19.60;52.00;;;;;;5033820;28;20124;-62
2023/03/07 05:56:49;;;;;;;1.67;0.38;;;19.60;51.90;;;;;;5034010;28;20113;-62
2023/03/07 05:59:15;;;;;;;1.70;0.28;;;19.70;51.90;;;;;;5033182;28;20492;-62
2023/03/07 06:01:41;;;;;;;1.02;0.30;;;19.70;51.90;;;;;;5033241;28;20041;-62
2023/03/07 06:04:07;;;;;;;1.23;0.30;;;19.70;51.90;;;;;;5034254;28;20072;-62
2023/03/07 06:06:32;;;;;;;0.75;0.30;;;19.80;51.90;;;;;;5031605;28;20069;-62
2023/03/07 06:08:58;;;;;;;2.05;0.30;;;19.70;51.90;;;;;;5033747;28;20048;-62
2023/03/07 06:11:23;;;;;;;1.15;0.30;;;19.70;51.90;;;;;;5033734;28;20087;-63
2023/03/07 06:13:49;;;;;;;1.00;0.30;;;19.70;51.90;;;;;;5032938;28;20493;-62
2023/03/07 06:16:14;;;;;;;0.75;0.30;;;19.80;51.90;;;;;;5032353;28;20041;-62
2023/03/07 06:18:40;;;;;;;1.65;0.30;;;19.70;51.90;;;;;;5032970;28;20095;-62
2023/03/07 06:21:06;;;;;;;1.45;0.30;;;19.70;51.90;;;;;;5033826;28;20128;-62
2023/03/07 06:23:33;;;;;;;1.30;0.28;;;19.80;51.90;;;;;;5051114;28;20143;-62
2023/03/07 06:25:59;;;;;;;1.60;0.40;;;19.80;51.90;;;;;;5053255;28;20049;-62
2023/03/07 06:28:25;;;;;;;0.98;0.30;;;19.80;51.90;;;;;;5052337;28;20130;-63
2023/03/07 06:30:50;;;;;;;1.17;0.30;;;19.80;51.90;;;;;;5051550;28;20404;-63
2023/03/07 06:33:16;;;;;;;0.85;0.22;;;19.80;51.90;;;;;;5039499;28;20103;-63
2023/03/07 06:35:42;;;;;;;1.27;0.30;;;19.80;51.90;;;;;;5031904;28;20123;-64
2023/03/07 06:38:08;;;;;;;1.95;0.30;;;19.80;51.90;;;;;;5032794;28;20029;-64
2023/03/07 06:40:33;;;;;;;2.90;0.40;;;19.80;51.90;;;;;;5033047;28;20572;-64
2023/03/07 06:42:59;;;;;;;2.80;0.30;;;19.80;51.80;;;;;;5031963;28;20053;-64
2023/03/07 06:45:25;;;;;;;1.85;0.40;;;19.80;51.80;;;;;;5032813;28;20500;-64
2023/03/07 06:47:50;;;;;;;1.58;0.40;;;19.80;51.90;;;;;;5032516;28;20064;-64
2023/03/07 06:50:16;;;;;;;2.80;0.50;;;19.80;51.90;;;;;;5032291;28;20065;-64
2023/03/07 06:52:42;;;;;;;1.20;0.30;;;19.90;51.90;;;;;;5030805;28;20049;-64
2023/03/07 06:55:10;;;;;;;2.08;0.30;;;19.90;51.90;;;;;;5032371;28;20124;-64
2023/03/07 06:57:36;;;;;;;3.13;0.55;;;19.90;51.90;;;;;;5032737;28;20068;-64
2023/03/07 07:00:03;;;;;;;1.60;0.40;;;19.90;51.90;;;;;;5032720;28;20493;-66
2023/03/07 07:02:28;;;;;;;3.60;0.70;;;19.90;51.90;;;;;;5031643;28;20505;-63
2023/03/07 07:04:54;;;;;;;3.67;0.45;;;19.90;51.90;;;;;;5032498;28;20132;-63
2023/03/07 07:07:19;;;;;;;3.15;0.30;;;19.90;52.00;;;;;;5032372;28;20072;-63
2023/03/07 07:09:48;;;;;;;10.05;0.70;;;19.90;52.00;;;;;;5040007;28;20745;-63
2023/03/07 07:12:13;;;;;;;;;;;19.90;52.10;;;;;;5032704;28;20046;-66
2023/03/07 07:14:39;;;;;;;1.88;0.40;;;19.90;52.30;;;;;;5032104;28;19927;-64
2023/03/07 07:17:04;;;;;;;3.30;0.30;;;19.90;52.20;;;;;;5031194;28;20099;-64
2023/03/07 07:19:30;;;;;;;2.38;0.43;;;19.90;52.20;;;;;;5031868;28;20041;-64
2023/03/07 07:21:56;;;;;;;3.60;0.32;;;20.00;52.30;;;;;;5032234;28;20346;-64
2023/03/07 07:24:25;;;;;;;3.38;0.40;;;20.00;52.50;;;;;;5031897;28;20041;-64
2023/03/07 07:26:50;;;;;;;2.40;0.50;;;20.00;52.50;;;;;;5032612;28;20077;-64
2023/03/07 07:29:16;;;;;;;3.60;0.40;;;20.00;52.60;;;;;;5032648;28;20057;-63
2023/03/07 07:31:50;;;;;;;2.97;0.40;;;20.00;52.70;;;;;;5031223;28;20513;-64
2023/03/07 07:34:16;;;;;;;3.90;0.60;;;20.00;52.70;;;;;;5032180;28;20052;-65
2023/03/07 07:36:42;;;;;;;4.15;0.32;;;20.00;52.70;;;;;;5031992;28;20041;-64
2023/03/07 07:39:14;;;;;;;1.02;0.43;;;20.00;52.80;;;;;;5030788;28;20045;-65
2023/03/07 07:41:39;;;;;;;1.83;0.35;;;20.10;53.00;;;;;;5031572;28;20117;-63
2023/03/07 07:44:05;;;;;;;3.25;0.43;;;20.10;53.10;;;;;;5031673;28;20134;-64
2023/03/07 07:46:30;;;;;;;1.58;0.25;;;20.10;53.10;;;;;;5031050;28;20492;-65
2023/03/07 07:48:56;;;;;;;2.38;0.43;;;20.10;53.10;;;;;;5031993;28;20046;-64
2023/03/07 07:51:21;;;;;;;2.20;0.35;;;20.10;53.10;;;;;;5031441;28;20136;-66
2023/03/07 07:53:47;;;;;;;1.63;0.40;;;20.10;53.10;;;;;;5030970;28;20129;-65
2023/03/07 07:56:13;;;;;;;2.85;0.40;;;20.10;53.20;;;;;;5032092;28;20041;-65
2023/03/07 07:58:39;;;;;;;2.05;0.20;;;20.10;53.30;;;;;;5030345;28;20584;-64
2023/03/07 08:01:31;;;;;;;6.50;0.40;;;20.10;53.30;;;;;;5031734;28;20108;-63
2023/03/07 08:03:57;;;;;;;2.88;0.52;;;20.10;53.40;;;;;;5030307;28;20188;-64
2023/03/07 08:06:24;;;;;;;4.00;0.40;;;20.10;53.30;;;;;;5043011;28;20128;-65
2023/03/07 08:08:50;;;;;;;2.50;0.50;;;20.10;53.50;;;;;;5051615;28;20056;-65
2023/03/07 08:11:16;;;;;;;1.73;0.30;;;20.20;53.60;;;;;;5049130;28;20476;-66
2023/03/07 08:13:42;;;;;;;0.65;0.30;;;20.20;53.60;;;;;;5028787;28;20095;-64
2023/03/07 08:16:17;;;;;;;0.70;0.30;;;20.20;53.60;;;;;;5031076;28;20461;-64
2023/03/07 08:18:47;;;;;;;3.72;0.50;;;20.20;53.60;;;;;;5021157;28;20037;-63
2023/03/07 08:21:13;;;;;;;1.13;0.30;;;20.20;53.60;;;;;;5031923;28;20056;-63
2023/03/07 08:23:38;;;;;;;1.60;0.20;;;20.20;53.60;;;;;;5034081;28;20070;-64
2023/03/07 08:26:05;;;;;;;1.23;0.30;;;20.20;53.60;;;;;;5035022;28;20535;-64
2023/03/07 08:28:30;;;;;;;1.45;0.30;;;20.20;53.60;;;;;;5033608;28;20045;-64
2023/03/07 08:30:56;;;;;;;1.27;0.40;;;20.20;53.60;;;;;;5034822;28;20050;-65
2023/03/07 08:33:22;;;;;;;2.05;0.50;;;20.20;53.60;;;;;;5034889;28;20052;-63
2023/03/07 08:35:47;;;;;;;1.88;0.30;;;20.20;53.70;;;;;;5033632;28;20132;-63
2023/03/07 08:38:13;;;;;;;2.08;0.50;;;20.20;54.40;;;;;;5034400;28;20038;-64
2023/03/07 08:40:38;;;;;;;0.93;0.30;;;20.20;53.70;;;;;;5033667;28;20051;-63
2023/03/07 08:43:10;;;;;;;2.08;0.30;;;20.20;53.70;;;;;;5034409;28;20131;-64
2023/03/07 08:45:36;;;;;;;1.45;0.30;;;20.20;53.70;;;;;;5032588;28;20562;-63
2023/03/07 08:48:02;;;;;;;2.55;0.30;;;20.20;53.70;;;;;;5031689;28;20055;-64
2023/03/07 08:50:27;;;;;;;2.15;0.55;;;20.20;53.70;;;;;;5034356;28;20541;-64
2023/03/07 08:52:53;;;;;;;1.50;0.30;;;20.20;53.60;;;;;;5034759;28;20100;-63
2023/03/07 08:55:19;;;;;;;1.25;0.30;;;20.20;53.60;;;;;;5033613;28;20077;-64
2023/03/07 08:57:47;;;;;;;1.08;0.32;;;20.20;53.60;;;;;;5032472;28;20413;-64
2023/03/07 09:00:13;;;;;;;1.30;0.30;;;20.20;53.60;;;;;;5033732;28;20509;-65
2023/03/07 09:02:39;;;;;;;1.65;0.47;;;20.20;53.70;;;;;;5033503;28;20080;-65
2023/03/07 09:05:05;;;;;;;1.05;0.20;;;20.20;53.70;;;;;;5034525;28;20160;-65
2023/03/07 09:07:30;;;;;;;2.22;0.30;;;20.20;53.60;;;;;;5034093;28;20040;-64
2023/03/07 09:09:56;;;;;;;1.13;0.30;;;20.20;53.60;;;;;;5033170;28;20507;-64
2023/03/07 09:12:22;;;;;;;1.27;0.22;;;20.20;53.60;;;;;;5033953;28;20451;-63
2023/03/07 09:14:47;;;;;;;0.80;0.30;;;20.20;53.60;;;;;;5033417;28;20046;-64
2023/03/07 09:17:13;;;;;;;1.77;0.32;;;20.10;53.60;;;;;;5033088;28;20037;-65
2023/03/07 09:19:38;;;;;;;1.98;0.40;;;20.20;53.60;;;;;;5014782;28;20038;-64
2023/03/07 09:22:04;;;;;;;2.80;0.30;;;20.20;53.60;;;;;;5016221;28;20172;-65
2023/03/07 09:24:29;;;;;;;0.90;0.30;;;20.10;53.50;;;;;;5013047;28;20045;-65
2023/03/07 09:26:55;;;;;;;2.95;0.30;;;20.10;53.50;;;;;;5014926;28;20120;-64
2023/03/07 09:29:21;;;;;;;6.97;0.50;;;20.10;53.50;;;;;;5018998;28;20528;-67
2023/03/07 09:31:46;;;;;;;2.60;0.40;;;20.10;53.50;;;;;;5016130;28;20040;-65
2023/03/07 09:34:12;;;;;;;2.80;0.30;;;20.10;53.50;;;;;;5025308;28;20044;-65
2023/03/07 09:36:38;;;;;;;4.80;0.38;;;20.20;54.30;;;;;;5031360;28;20049;-66
2023/03/07 09:39:03;;;;;;;2.00;0.30;;;20.20;53.60;;;;;;5021621;28;20107;-66
2023/03/07 09:41:32;;;;;;;1.73;0.40;;;20.20;53.60;;;;;;5025801;28;20041;-66
2023/03/07 09:44:21;;;;;;;2.13;0.40;;;20.20;53.60;;;;;;5016724;28;20065;-67
2023/03/07 09:47:11;;;;;;;1.95;0.40;;;20.20;53.60;;;;;;5042252;28;20133;-66
2023/03/07 09:49:37;;;;;;;2.25;0.30;;;20.20;53.40;;;;;;5012447;28;20513;-66
2023/03/07 09:52:06;;;;;;;0.65;0.28;;;20.20;53.40;;;;;;5028514;28;20486;-66
2023/03/07 09:54:33;;;;;;;2.30;0.35;;;20.20;53.40;;;;;;4996624;28;20050;-66
2023/03/07 09:56:59;;;;;;;2.88;0.40;;;20.10;53.20;;;;;;5020574;28;20038;-66
2023/03/07 09:59:37;;;;;;;1.10;0.40;;;20.10;53.30;;;;;;5011310;28;20049;-65
2023/03/07 10:02:31;;;;;;;6.75;1.25;;;20.20;53.40;;;;;;5027206;28;20390;-66
2023/03/07 10:05:33;;;;;;;5.10;0.50;;;20.20;53.60;;;;;;5029259;28;20111;-69
2023/03/07 10:07:59;;;;;;;4.25;0.40;;;20.20;53.60;;;;;;5017507;28;20050;-69
2023/03/07 10:10:45;;;;;;;2.97;0.22;;;20.20;53.60;;;;;;5013485;28;20124;-67
2023/03/07 10:13:39;;;;;;;1.35;0.40;;;20.20;53.60;;;;;;5007730;28;20057;-66
2023/03/07 10:16:26;;;;;;;3.03;0.52;;;20.10;53.60;;;;;;5020087;28;20072;-66
2023/03/07 10:19:19;;;;;;;1.27;0.40;;;20.20;53.60;;;;;;5013127;28;20050;-67
2023/03/07 10:22:16;;;;;;;2.90;0.40;;;20.10;53.50;;;;;;5032559;28;20103;-67
2023/03/07 10:25:07;;;;;;;5.65;0.50;;;20.20;53.60;;;;;;5030994;28;20898;-67
2023/03/07 10:27:32;;;;;;;5.15;0.82;;;20.10;53.50;;;;;;5026679;28;20514;-61
2023/03/07 10:29:59;;;;;;;8.68;1.50;;;20.10;53.60;;;;;;5019088;28;20126;-68
2023/03/07 10:32:31;;;;;;;7.40;1.30;;;20.10;53.80;;;;;;5027225;28;20567;-68
2023/03/07 10:35:09;;;;;;;7.35;1.60;;;20.10;53.80;;;;;;5024262;28;20037;-68
2023/03/07 10:37:39;;;;;;;;;;;20.10;53.70;;;;;;5028230;28;20085;-69
2023/03/07 10:40:05;;;;;;;10.30;1.83;;;20.10;53.60;;;;;;4994627;28;19979;-70
2023/03/07 10:42:34;;;;;;;5.80;1.50;;;20.10;53.60;;;;;;5030273;28;20057;-69
2023/03/07 10:45:00;;;;;;;6.30;1.70;;;20.10;53.50;;;;;;5010822;28;20506;-69
2023/03/07 10:47:28;;;;;;;10.30;1.55;;;20.00;53.50;;;;;;5024156;28;20144;-69
2023/03/07 10:50:16;;;;;;;7.72;1.73;;;20.00;53.50;;;;;;5022833;28;20042;-69
2023/03/07 10:52:47;;;;;;;9.07;1.90;;;20.00;53.50;;;;;;5020580;28;20568;-69
2023/03/07 10:55:35;;;;;;;6.22;1.70;;;20.00;53.50;;;;;;5028718;28;20052;-68
2023/03/07 10:58:10;;;;;;;8.93;1.85;;;20.00;53.50;;;;;;5031128;28;20046;-67
2023/03/07 11:00:36;;;;;;;6.18;1.85;;;20.00;53.50;;;;;;5028859;28;20061;-68
2023/03/07 11:03:01;;;;;;;4.95;1.55;;;20.00;53.50;;;;;;5028211;28;20048;-68
2023/03/07 11:05:31;;;;;;;5.03;1.52;;;20.00;53.50;;;;;;5030407;28;20049;-68
2023/03/07 11:07:57;;;;;;;6.28;1.40;;;20.00;53.50;;;;;;5030968;28;20045;-68
2023/03/07 11:10:39;;;;;;;8.70;1.80;;;20.00;53.50;;;;;;5028942;28;20041;-68
2023/03/07 11:13:16;;;;;;;5.70;1.50;;;20.00;53.50;;;;;;5028639;28;20052;-68
2023/03/07 11:15:43;;;;;;;8.15;1.83;;;20.00;53.50;;;;;;5029846;28;20073;-68
2023/03/07 11:18:30;;;;;;;5.97;1.60;;;20.00;53.50;;;;;;5029758;28;20041;-67
2023/03/07 11:20:56;;;;;;;5.70;1.40;;;20.00;53.50;;;;;;5029620;28;20084;-66
2023/03/07 11:23:27;;;;;;;7.93;1.60;;;20.00;53.50;;;;;;5027743;28;20071;-66
2023/03/07 11:25:54;;;;;;;5.07;1.33;;;20.00;53.50;;;;;;5027424;28;20041;-68
2023/03/07 11:28:33;;;;;;;4.57;1.30;;;20.00;53.50;;;;;;5018726;28;20049;-66
2023/03/07 11:31:20;;;;;;;5.68;1.35;;;20.00;53.50;;;;;;5019922;28;20099;-67
2023/03/07 11:33:52;;;;;;;8.05;1.83;;;20.00;53.40;;;;;;5019157;28;20061;-68
2023/03/07 11:36:21;;;;;;;4.75;1.33;;;20.10;53.40;;;;;;5015119;28;20048;-68
2023/03/07 11:39:08;;;;;;;5.00;1.20;;;20.10;53.30;;;;;;5029331;28;20120;-68
2023/03/07 11:41:36;;;;;;;5.18;1.40;;;20.00;53.20;;;;;;5030439;28;20045;-68
2023/03/07 11:44:14;;;;;;;5.47;1.40;;;20.00;53.30;;;;;;5029692;28;20420;-69
2023/03/07 11:47:01;;;;;;;4.82;1.45;;;20.00;53.30;;;;;;5028445;28;20560;-68
2023/03/07 11:49:40;;;;;;;4.17;1.43;;;20.10;53.40;;;;;;5029605;28;20041;-68
2023/03/07 11:52:27;;;;;;;6.18;1.67;;;20.10;53.50;;;;;;5020108;28;20041;-68
2023/03/07 11:55:26;;;;;;;6.90;1.30;;;20.00;53.50;;;;;;5011893;28;20053;-67
2023/03/07 11:58:19;;;;;;;3.95;1.20;;;20.10;53.30;;;;;;5023149;28;20052;-68
2023/03/07 12:00:53;;;;;;;5.88;1.50;;;20.10;53.30;;;;;;4998265;28;20440;-68
2023/03/07 12:03:22;;;;;;;6.68;1.70;;;20.00;53.30;;;;;;5032199;28;20645;-68
2023/03/07 12:06:28;;;;;;;4.95;1.60;;;20.10;53.30;;;;;;5031519;28;20342;-67
2023/03/07 12:09:12;;;;;;;5.87;1.57;;;20.10;53.30;;;;;;5024568;28;20132;-67
2023/03/07 12:11:47;;;;;;;7.00;1.67;;;20.00;53.30;;;;;;5032825;28;20061;-68
2023/03/07 12:14:35;;;;;;;6.60;1.35;;;20.00;53.30;;;;;;5023913;28;20046;-67
2023/03/07 12:17:31;;;;;;;5.43;1.60;;;20.00;53.20;;;;;;5005532;28;20055;-68
2023/03/07 12:20:03;;;;;;;5.88;1.48;;;20.00;53.20;;;;;;5014537;28;20482;-68
2023/03/07 12:22:34;;;;;;;4.38;1.38;;;20.00;53.20;;;;;;5026889;28;20074;-68
2023/03/07 12:25:22;;;;;;;5.22;1.30;;;20.00;53.30;;;;;;5018095;28;20124;-66
2023/03/07 12:27:50;;;;;;;4.93;1.27;;;20.00;53.20;;;;;;5028205;28;20053;-67
2023/03/07 12:30:20;;;;;;;;;;;20.00;53.10;;;;;;5014414;28;20099;-68
2023/03/07 12:32:46;;;;;;;2.33;1.00;;;19.90;53.60;;;;;;5036151;28;20395;-69
2023/03/07 12:35:29;;;;;;;3.78;1.00;;;19.90;53.00;;;;;;5040948;28;20037;-68
2023/03/07 12:38:02;;;;;;;4.00;1.02;;;19.90;53.70;;;;;;5021687;28;20038;-68
2023/03/07 12:40:48;;;;;;;3.42;1.15;;;19.90;53.00;;;;;;5015016;28;20050;-68
2023/03/07 12:43:42;;;;;;;5.45;1.60;;;19.90;53.00;;;;;;5029378;28;20046;-68
2023/03/07 12:46:28;;;;;;;3.08;1.00;;;19.90;52.90;;;;;;5012447;28;20046;-68
2023/03/07 12:49:23;;;;;;;4.63;1.35;;;19.90;53.00;;;;;;5013154;28;20085;-68
2023/03/07 12:51:53;;;;;;;4.35;1.20;;;19.90;53.00;;;;;;5018357;28;20052;-68
2023/03/07 12:54:29;;;;;;;2.40;0.90;;;19.90;53.00;;;;;;5024165;28;20046;-68
2023/03/07 12:57:02;;;;;;;3.50;1.17;;;19.90;52.90;;;;;;5024552;28;20112;-67
2023/03/07 12:59:28;;;;;;;2.08;0.90;;;19.90;53.00;;;;;;5014414;28;20050;-68